Time;durP1;ratioP1;P1;durP2;ratioP2;P2;SDS_P1;SDS_P2;PMS_P1;PMS_P2;Temp;Humidity;BMP_temperature;BMP_pressure;BME280_temperature;BME280_humidity;BME280_pressure;Samples;Min_cycle;Max_cycle;Signal;HPM_P1;HPM_P2
2023/12/19 00:01:52;;;;;;;;;9.60;9.00;;;;;5.90;83.86;100818.41;5096234;28;8845;-59
2023/12/19 00:04:19;;;;;;;;;7.00;7.00;;;;;5.89;84.04;100821.09;5097895;28;8857;-56
2023/12/19 00:06:47;;;;;;;;;11.60;9.40;;;;;5.87;83.71;100828.25;5098151;28;8948;-59
2023/12/19 00:09:15;;;;;;;;;9.40;7.40;;;;;5.88;83.74;100829.97;5098642;28;8830;-58
2023/12/19 00:11:43;;;;;;;;;7.40;6.60;;;;;5.87;84.03;100828.25;5099437;28;8842;-59
2023/12/19 00:14:10;;;;;;;;;9.80;9.20;;;;;5.87;83.96;100821.19;5099216;28;8820;-56
2023/12/19 00:16:38;;;;;;;;;9.00;7.00;;;;;5.90;83.92;100814.88;5094751;28;8811;-58
2023/12/19 00:19:08;;;;;;;;;10.00;9.60;;;;;5.91;83.94;100806.91;5097896;28;8830;-59
2023/12/19 00:21:35;;;;;;;;;4.40;4.40;;;;;5.93;83.82;100809.47;5098187;28;8828;-56
2023/12/19 00:24:03;;;;;;;;;10.40;9.60;;;;;5.95;83.81;100810.25;5097113;28;8826;-58
2023/12/19 00:26:31;;;;;;;;;4.00;3.60;;;;;5.95;84.20;100800.56;5097588;28;8806;-58
2023/12/19 00:28:59;;;;;;;;;7.40;6.40;;;;;5.96;84.11;100794.31;5097207;28;8836;-58
2023/12/19 00:31:27;;;;;;;;;8.60;7.60;;;;;5.96;83.92;100796.97;5097766;28;8818;-57
2023/12/19 00:33:55;;;;;;;;;9.00;8.60;;;;;5.96;84.13;100807.53;5094767;28;8959;-57
2023/12/19 00:36:23;;;;;;;;;11.00;8.20;;;;;5.97;84.21;100797.81;5098852;28;8827;-58
2023/12/19 00:38:51;;;;;;;;;9.40;9.00;;;;;5.98;83.95;100796.88;5101565;28;8830;-58
2023/12/19 00:41:19;;;;;;;;;8.40;8.40;;;;;5.98;84.34;100778.38;5098280;28;8877;-58
2023/12/19 00:43:47;;;;;;;;;9.40;8.20;;;;;5.99;83.91;100780.97;5099147;28;8834;-57
2023/12/19 00:46:14;;;;;;;;;6.20;5.60;;;;;5.99;84.34;100780.13;5097488;28;9550;-59
2023/12/19 00:48:42;;;;;;;;;9.00;8.40;;;;;5.99;84.20;100788.03;5095769;28;8826;-58
2023/12/19 00:51:10;;;;;;;;;3.80;3.20;;;;;5.99;84.26;100809.19;5095631;28;8842;-56
2023/12/19 00:53:38;;;;;;;;;2.60;2.60;;;;;5.99;84.15;100811.84;5097519;28;8810;-56
2023/12/19 00:56:07;;;;;;;;;8.60;6.80;;;;;5.99;84.16;100817.13;5099782;28;8826;-57
2023/12/19 00:58:35;;;;;;;;;4.20;3.40;;;;;5.99;84.48;100819.78;5097529;28;8848;-57
2023/12/19 01:01:03;;;;;;;;;6.80;6.20;;;;;5.99;84.60;100810.03;5097226;28;8918;-56
2023/12/19 01:03:30;;;;;;;;;7.00;7.00;;;;;5.98;84.42;100803.03;5099437;28;8924;-58
2023/12/19 01:05:58;;;;;;;;;0.00;0.00;;;;;5.98;84.17;100796.88;5095726;28;8826;-59
2023/12/19 01:08:26;;;;;;;;;1.50;1.00;;;;;5.96;84.91;100801.38;5096520;28;8818;-57
2023/12/19 01:10:54;;;;;;;;;6.40;6.00;;;;;5.95;84.55;100807.59;5097367;28;8831;-57
2023/12/19 01:13:21;;;;;;;;;2.00;2.00;;;;;5.93;84.78;100812.97;5097055;28;8855;-56
2023/12/19 01:15:49;;;;;;;;;6.80;5.60;;;;;5.93;84.92;100809.47;5094426;28;8820;-56
2023/12/19 01:18:17;;;;;;;;;4.00;4.00;;;;;5.92;84.54;100813.06;5095319;28;8814;-57
2023/12/19 01:20:47;;;;;;;;;6.00;5.20;;;;;5.91;84.53;100809.53;5097041;28;8842;-56
2023/12/19 01:23:15;;;;;;;;;6.60;6.00;;;;;5.90;84.99;100801.66;5096678;28;8911;-58
2023/12/19 01:25:43;;;;;;;;;3.80;3.60;;;;;5.90;84.82;100793.75;5096030;28;8835;-56
2023/12/19 01:28:11;;;;;;;;;5.20;5.20;;;;;5.89;84.73;100787.63;5097472;28;8818;-56
2023/12/19 01:30:39;;;;;;;;;4.00;4.00;;;;;5.87;85.03;100786.84;5096797;28;8798;-57
2023/12/19 01:33:06;;;;;;;;;4.00;4.00;;;;;5.87;85.31;100794.78;5094932;28;8810;-58
2023/12/19 01:35:35;;;;;;;;;4.00;3.00;;;;;5.86;85.40;100781.63;5096703;28;8841;-58
2023/12/19 01:38:03;;;;;;;;;9.00;7.00;;;;;5.85;85.07;100766.69;5096121;28;8826;-58
2023/12/19 01:40:31;;;;;;;;;4.40;3.20;;;;;5.83;85.08;100763.25;5096434;28;8814;-59
2023/12/19 01:42:59;;;;;;;;;3.20;3.20;;;;;5.82;85.22;100758.91;5095672;28;8903;-59
2023/12/19 01:45:27;;;;;;;;;6.00;4.40;;;;;5.81;84.89;100751.91;5096518;28;8834;-59
2023/12/19 01:47:55;;;;;;;;;3.60;3.60;;;;;5.80;84.72;100755.47;5094702;28;8860;-58
2023/12/19 01:50:23;;;;;;;;;6.00;5.20;;;;;5.79;85.25;100759.91;5097428;28;8814;-58
2023/12/19 01:52:51;;;;;;;;;5.80;5.80;;;;;5.78;85.38;100767.88;5093277;28;8830;-59
2023/12/19 01:55:18;;;;;;;;;4.20;3.00;;;;;5.75;85.37;100741.56;5096534;28;8810;-59
2023/12/19 01:57:46;;;;;;;;;0.00;0.00;;;;;5.74;85.49;100747.78;5095946;28;8814;-58
2023/12/19 02:00:14;;;;;;;;;6.00;3.80;;;;;5.73;85.92;100739.03;5095849;28;8825;-59
2023/12/19 02:02:43;;;;;;;;;4.80;4.80;;;;;5.71;85.67;100737.38;5087032;28;8972;-58
2023/12/19 02:05:11;;;;;;;;;9.00;7.00;;;;;5.71;85.70;100740.03;5094225;28;8826;-58
2023/12/19 02:07:39;;;;;;;;;3.40;3.40;;;;;5.70;85.70;100748.88;5095831;28;8833;-58
2023/12/19 02:10:07;;;;;;;;;5.60;4.80;;;;;5.69;85.66;100739.25;5096413;28;8806;-58
2023/12/19 02:12:35;;;;;;;;;4.40;4.00;;;;;5.68;85.63;100732.25;5095514;28;8842;-58
2023/12/19 02:15:03;;;;;;;;;6.00;5.60;;;;;5.66;85.77;100728.81;5095704;28;8802;-58
2023/12/19 02:17:30;;;;;;;;;6.80;6.20;;;;;5.65;86.30;100725.34;5095921;28;8826;-58
2023/12/19 02:19:59;;;;;;;;;7.00;6.40;;;;;5.64;86.28;100723.63;5105135;28;8800;-58
2023/12/19 02:22:27;;;;;;;;;3.40;3.00;;;;;5.64;86.07;100717.47;5098349;28;8830;-57
2023/12/19 02:24:56;;;;;;;;;4.80;4.80;;;;;5.62;86.26;100714.88;5100648;28;8854;-57
2023/12/19 02:27:24;;;;;;;;;4.00;4.00;;;;;5.62;86.11;100709.59;5096335;28;8830;-58
2023/12/19 02:29:52;;;;;;;;;4.00;4.00;;;;;5.60;86.13;100703.53;5096368;28;8813;-56
2023/12/19 02:32:19;;;;;;;;;6.80;5.60;;;;;5.59;86.27;100698.31;5092127;28;8842;-57
2023/12/19 02:34:49;;;;;;;;;4.00;4.00;;;;;5.58;86.41;100688.69;5093747;28;8826;-58
2023/12/19 02:37:17;;;;;;;;;5.20;5.20;;;;;5.58;86.32;100689.56;5097394;28;8923;-58
2023/12/19 02:39:45;;;;;;;;;3.40;2.20;;;;;5.58;86.61;100683.41;5096338;28;8836;-58
2023/12/19 02:42:13;;;;;;;;;4.40;4.00;;;;;5.57;86.41;100674.66;5096637;28;8853;-58
2023/12/19 02:44:40;;;;;;;;;4.20;3.20;;;;;5.57;86.72;100663.22;5096207;28;8856;-58
2023/12/19 02:47:08;;;;;;;;;3.80;3.80;;;;;5.57;86.65;100661.44;5096336;28;9479;-58
2023/12/19 02:49:36;;;;;;;;;4.00;3.00;;;;;5.57;86.26;100653.50;5093448;28;8865;-57
2023/12/19 02:52:04;;;;;;;;;2.40;2.20;;;;;5.58;86.52;100651.72;5095937;28;8814;-56
2023/12/19 02:54:32;;;;;;;;;3.80;3.80;;;;;5.58;86.23;100636.72;5095736;28;8826;-58
2023/12/19 02:56:59;;;;;;;;;0.80;0.80;;;;;5.60;86.33;100639.28;5095897;28;8911;-58
2023/12/19 02:59:27;;;;;;;;;6.40;6.00;;;;;5.60;86.79;100641.91;5096122;28;8868;-58
2023/12/19 03:01:55;;;;;;;;;3.00;2.20;;;;;5.62;86.72;100645.38;5095772;28;8891;-58
2023/12/19 03:04:22;;;;;;;;;2.60;2.60;;;;;5.61;86.71;100639.22;5094174;28;9525;-58
2023/12/19 03:06:50;;;;;;;;;3.60;3.60;;;;;5.64;86.68;100643.50;5089388;28;8841;-59
2023/12/19 03:09:19;;;;;;;;;6.80;6.60;;;;;5.65;86.39;100634.63;5081597;28;8811;-57
2023/12/19 03:11:46;;;;;;;;;4.00;3.60;;;;;5.66;86.92;100639.00;5095838;28;8975;-58
2023/12/19 03:14:15;;;;;;;;;4.00;3.20;;;;;5.67;86.70;100651.25;5097084;28;8807;-57
2023/12/19 03:16:43;;;;;;;;;4.00;4.00;;;;;5.68;86.42;100647.72;5099158;28;8810;-57
2023/12/19 03:19:10;;;;;;;;;1.00;1.00;;;;;5.68;86.80;100643.28;5095912;28;8813;-56
2023/12/19 03:21:38;;;;;;;;;3.80;3.40;;;;;5.70;86.33;100632.63;5099170;28;9499;-57
2023/12/19 03:24:06;;;;;;;;;4.40;3.40;;;;;5.72;86.30;100636.06;5100130;28;8818;-58
2023/12/19 03:26:34;;;;;;;;;4.40;4.40;;;;;5.74;86.16;100631.53;5099206;28;8840;-56
2023/12/19 03:29:01;;;;;;;;;4.00;3.40;;;;;5.76;86.57;100621.78;5096519;28;8810;-58
2023/12/19 03:31:29;;;;;;;;;2.60;2.60;;;;;5.78;86.52;100618.09;5098645;28;8833;-58
2023/12/19 03:33:57;;;;;;;;;1.40;1.00;;;;;5.80;86.34;100608.38;5095630;28;9806;-58
2023/12/19 03:36:25;;;;;;;;;0.00;0.00;;;;;5.83;86.40;100604.69;5101646;28;8824;-58
2023/12/19 03:38:53;;;;;;;;;1.00;1.00;;;;;5.85;86.45;100601.06;5101324;28;8825;-55
2023/12/19 03:41:20;;;;;;;;;2.60;2.60;;;;;5.88;86.37;100589.47;5093547;28;8965;-58
2023/12/19 03:43:48;;;;;;;;;4.00;4.00;;;;;5.88;86.21;100593.00;5107339;28;8845;-58
2023/12/19 03:46:16;;;;;;;;;5.20;4.00;;;;;5.90;86.49;100591.13;5099227;28;8834;-58
2023/12/19 03:48:45;;;;;;;;;6.80;6.60;;;;;5.93;86.37;100593.59;5099682;28;8932;-57
2023/12/19 03:51:13;;;;;;;;;4.00;4.00;;;;;5.95;86.34;100590.88;5097393;28;9448;-58
2023/12/19 03:53:42;;;;;;;;;7.20;6.20;;;;;5.97;86.37;100595.16;5099290;28;8810;-57
2023/12/19 03:56:10;;;;;;;;;3.40;3.00;;;;;6.01;86.38;100596.69;5100551;28;9010;-58
2023/12/19 03:58:37;;;;;;;;;5.60;3.80;;;;;6.04;86.28;100593.91;5097809;28;8822;-56
2023/12/19 04:01:05;;;;;;;;;5.40;4.40;;;;;6.07;86.60;100601.69;5099186;28;8818;-58
2023/12/19 04:03:33;;;;;;;;;2.20;2.20;;;;;6.08;86.32;100603.38;5097025;28;8888;-58
2023/12/19 04:06:01;;;;;;;;;6.20;6.00;;;;;6.11;86.00;100608.53;5098893;28;8895;-57
2023/12/19 04:08:28;;;;;;;;;3.25;3.25;;;;;6.14;86.19;100611.00;5098927;28;8916;-58
2023/12/19 04:10:56;;;;;;;;;4.40;4.40;;;;;6.17;86.45;100607.38;5098665;28;8973;-57
2023/12/19 04:13:24;;;;;;;;;5.50;4.50;;;;;6.20;85.44;100602.78;5098944;28;8814;-56
2023/12/19 04:15:52;;;;;;;;;3.00;3.00;;;;;6.23;85.94;100593.84;5098033;28;8834;-58
2023/12/19 04:18:20;;;;;;;;;6.00;4.00;;;;;6.25;86.02;100591.97;5098582;28;8810;-58
2023/12/19 04:20:47;;;;;;;;;4.40;4.00;;;;;6.26;85.72;100580.44;5098657;28;8944;-58
2023/12/19 04:23:15;;;;;;;;;0.25;0.25;;;;;6.27;85.95;100574.22;5098470;28;8818;-56
2023/12/19 04:25:43;;;;;;;;;3.20;2.60;;;;;6.27;85.95;100575.09;5098176;28;8940;-57
2023/12/19 04:28:11;;;;;;;;;5.60;4.40;;;;;6.26;86.17;100556.66;5098131;28;8814;-56
2023/12/19 04:30:39;;;;;;;;;3.60;3.20;;;;;6.26;86.13;100562.81;5098122;28;8826;-57
2023/12/19 04:33:07;;;;;;;;;5.80;4.00;;;;;6.25;86.16;100557.59;5102424;28;8811;-58
2023/12/19 04:35:35;;;;;;;;;9.00;7.00;;;;;6.25;85.82;100565.50;5105231;28;8891;-56
2023/12/19 04:38:03;;;;;;;;;9.60;8.20;;;;;6.24;86.13;100542.66;5097795;28;8822;-58
2023/12/19 04:40:32;;;;;;;;;6.00;4.40;;;;;6.20;86.23;100522.59;5097622;28;9479;-57
2023/12/19 04:43:00;;;;;;;;;7.20;6.80;;;;;6.18;86.16;100513.88;5097562;28;8799;-58
2023/12/19 04:45:28;;;;;;;;;6.00;6.00;;;;;6.14;86.50;100507.06;5101549;28;9513;-58
2023/12/19 04:47:56;;;;;;;;;6.00;5.20;;;;;6.11;86.61;100492.22;5115020;28;8816;-58
2023/12/19 04:50:23;;;;;;;;;6.40;5.20;;;;;6.08;86.89;100481.78;5085970;28;9626;-58
2023/12/19 04:52:53;;;;;;;;;7.40;7.40;;;;;6.07;86.68;100490.66;5100862;28;8928;-55
2023/12/19 04:55:21;;;;;;;;;4.40;4.00;;;;;6.06;86.84;100482.81;5097782;28;8798;-56
2023/12/19 04:57:49;;;;;;;;;5.00;5.00;;;;;6.05;87.24;100475.81;5097829;28;8829;-56
2023/12/19 05:00:17;;;;;;;;;8.60;7.80;;;;;6.04;87.08;100484.69;5097441;28;8822;-56
2023/12/19 05:02:44;;;;;;;;;7.00;6.20;;;;;6.04;86.87;100482.03;5102454;28;8834;-56
2023/12/19 05:05:13;;;;;;;;;1.00;1.00;;;;;6.07;87.66;100487.19;5108737;28;8918;-55
2023/12/19 05:07:40;;;;;;;;;9.00;6.40;;;;;6.10;87.24;100489.66;5097613;28;8836;-58
2023/12/19 05:10:10;;;;;;;;;5.40;4.40;;;;;6.12;87.18;100490.41;5100067;28;8865;-58
2023/12/19 05:12:40;;;;;;;;;3.00;3.00;;;;;6.17;87.08;100481.31;5098002;28;8850;-58
2023/12/19 05:15:08;;;;;;;;;6.60;6.60;;;;;6.22;87.23;100455.47;5096986;28;8826;-58
2023/12/19 05:17:37;;;;;;;;;5.60;4.40;;;;;6.28;86.81;100467.50;5097262;28;8826;-57
2023/12/19 05:20:05;;;;;;;;;4.33;3.33;;;;;6.34;86.90;100469.81;5096931;28;8822;-58
2023/12/19 05:22:33;;;;;;;;;3.40;2.20;;;;;6.40;86.71;100467.72;5096239;28;8814;-58
2023/12/19 05:25:01;;;;;;;;;2.33;1.67;;;;;6.46;86.36;100467.38;5097214;28;8822;-56
2023/12/19 05:27:29;;;;;;;;;3.20;3.00;;;;;6.50;86.39;100457.47;5096907;28;8826;-56
2023/12/19 05:29:56;;;;;;;;;3.25;3.00;;;;;6.53;86.59;100452.03;5097260;28;8822;-58
2023/12/19 05:32:24;;;;;;;;;3.75;3.25;;;;;6.57;86.26;100442.97;5103750;28;8911;-58
2023/12/19 05:34:52;;;;;;;;;5.00;5.00;;;;;6.59;86.00;100444.59;5096364;28;8818;-58
2023/12/19 05:37:19;;;;;;;;;2.50;2.50;;;;;6.63;86.06;100442.63;5095979;28;8810;-59
2023/12/19 05:39:48;;;;;;;;;5.20;3.60;;;;;6.66;86.13;100440.69;5095453;28;8810;-59
2023/12/19 05:42:16;;;;;;;;;3.00;3.00;;;;;6.69;86.27;100434.38;5076450;28;8848;-58
2023/12/19 05:44:44;;;;;;;;;5.20;1.00;;;;;6.71;86.46;100424.53;5096103;28;9483;-58
2023/12/19 05:47:12;;;;;;;;;3.00;3.00;;;;;6.72;86.19;100415.66;5095520;28;8818;-58
2023/12/19 05:49:39;;;;;;;;;3.80;3.40;;;;;6.72;86.17;100421.81;5096618;28;8826;-58
2023/12/19 05:52:07;;;;;;;;;1.50;1.50;;;;;6.76;86.14;100411.91;5096514;28;8810;-57
2023/12/19 05:54:35;;;;;;;;;1.00;1.00;;;;;6.78;86.16;100413.53;5097412;28;8849;-58
2023/12/19 05:57:03;;;;;;;;;0.25;0.25;;;;;6.80;86.00;100410.78;5095399;28;8818;-58
2023/12/19 05:59:31;;;;;;;;;2.75;2.75;;;;;6.81;86.28;100417.81;5096675;28;8822;-58
2023/12/19 06:01:59;;;;;;;;;1.50;1.50;;;;;6.82;86.05;100407.13;5096295;28;8822;-57
2023/12/19 06:04:26;;;;;;;;;1.00;1.00;;;;;6.83;85.83;100411.47;5095346;28;8806;-58
2023/12/19 06:06:54;;;;;;;;;2.00;1.50;;;;;6.87;85.68;100414.78;5095782;28;8822;-58
2023/12/19 06:09:23;;;;;;;;;2.50;2.50;;;;;6.89;86.61;100410.28;5095697;28;8826;-58
2023/12/19 06:11:51;;;;;;;;;2.50;2.50;;;;;6.93;85.81;100409.16;5095777;28;8870;-58
2023/12/19 06:14:18;;;;;;;;;2.00;1.00;;;;;6.95;85.95;100407.25;5095103;28;8816;-58
2023/12/19 06:16:46;;;;;;;;;3.25;2.50;;;;;6.98;86.07;100410.59;5095144;28;8830;-58
2023/12/19 06:19:14;;;;;;;;;1.00;1.00;;;;;7.00;85.82;100415.81;5095711;28;9622;-58
2023/12/19 06:28:00;;;;;;;;;0.25;0.25;;;;;7.04;85.55;100404.94;5095404;28;8815;-58
2023/12/19 06:30:28;;;;;;;;;0.00;0.00;;;;;7.04;85.86;100407.59;5094860;28;8818;-58
2023/12/19 06:33:01;;;;;;;;;1.00;1.00;;;;;7.06;85.79;100392.47;5092594;28;8833;-57
2023/12/19 06:35:29;;;;;;;;;0.25;0.25;;;;;7.07;86.18;100390.69;5094316;28;8850;-58
2023/12/19 06:37:57;;;;;;;;;1.00;0.75;;;;;7.08;85.88;100400.31;5094044;28;8826;-58
2023/12/19 06:40:25;;;;;;;;;1.00;1.00;;;;;7.10;85.51;100398.44;5094964;28;8810;-58
2023/12/19 06:42:53;;;;;;;;;0.50;0.50;;;;;7.09;86.04;100397.59;5095025;28;9535;-59
2023/12/19 06:45:22;;;;;;;;;1.00;1.00;;;;;7.09;86.04;100391.44;5094195;28;8826;-58
2023/12/19 06:47:49;;;;;;;;;3.00;3.00;;;;;7.09;85.64;100404.66;5090819;28;8854;-58
2023/12/19 06:50:18;;;;;;;;;4.00;3.00;;;;;7.09;85.43;100389.66;5091594;28;8945;-55
2023/12/19 06:52:47;;;;;;;;;1.00;1.00;;;;;7.09;85.68;100394.06;5093630;28;8832;-56
2023/12/19 06:55:14;;;;;;;;;1.50;1.50;;;;;7.08;85.67;100392.38;5094307;28;8806;-57
2023/12/19 06:57:42;;;;;;;;;2.00;2.00;;;;;7.09;86.62;100392.31;5094892;28;9507;-58
2023/12/19 07:00:10;;;;;;;;;2.00;2.00;;;;;7.12;85.94;100393.91;5094105;28;8947;-57
2023/12/19 07:02:38;;;;;;;;;5.50;1.00;;;;;7.11;85.85;100386.88;5096173;28;8940;-56
2023/12/19 07:05:06;;;;;;;;;3.00;3.00;;;;;7.06;85.98;100386.34;5096884;28;8806;-56
2023/12/19 07:07:34;;;;;;;;;0.75;0.75;;;;;6.96;86.01;100390.47;5093163;28;8857;-58
2023/12/19 07:10:03;;;;;;;;;2.50;2.00;;;;;6.89;86.14;100387.28;5094601;28;8826;-56
2023/12/19 07:12:31;;;;;;;;;3.00;1.00;;;;;6.82;86.83;100398.34;5093919;28;8834;-55
2023/12/19 07:14:58;;;;;;;;;2.50;1.00;;;;;6.78;87.07;100404.72;5093785;28;8822;-58
2023/12/19 07:17:26;;;;;;;;;2.50;2.50;;;;;6.74;86.15;100395.28;5092223;28;8830;-58
2023/12/19 07:19:54;;;;;;;;;3.25;3.00;;;;;6.71;86.86;100391.00;5094269;28;8849;-58
2023/12/19 07:22:22;;;;;;;;;3.00;3.00;;;;;6.68;86.97;100375.28;5093539;28;8833;-58
2023/12/19 07:24:50;;;;;;;;;3.00;3.00;;;;;6.65;87.50;100375.47;5094247;28;8822;-58
2023/12/19 07:27:18;;;;;;;;;4.00;3.25;;;;;6.62;87.30;100373.00;5094322;28;8825;-58
2023/12/19 07:29:46;;;;;;;;;2.00;1.50;;;;;6.62;87.23;100361.56;5094853;28;8830;-56
2023/12/19 07:32:14;;;;;;;;;3.50;3.00;;;;;6.61;87.45;100383.66;5094785;28;8838;-56
2023/12/19 07:34:42;;;;;;;;;3.00;3.00;;;;;6.60;87.62;100352.88;5094554;28;8841;-57
2023/12/19 07:37:10;;;;;;;;;2.50;2.50;;;;;6.59;87.56;100356.47;5094199;28;8834;-57
2023/12/19 07:39:38;;;;;;;;;0.50;0.50;;;;;6.58;87.86;100320.34;5094450;28;9753;-56
2023/12/19 07:42:05;;;;;;;;;3.00;3.00;;;;;6.57;87.80;100326.56;5094076;28;8869;-58
2023/12/19 07:44:34;;;;;;;;;1.00;1.00;;;;;6.56;87.70;100328.38;5094402;28;8841;-55
2023/12/19 07:47:02;;;;;;;;;3.00;3.00;;;;;6.56;87.95;100325.72;5094067;28;8879;-58
2023/12/19 07:49:30;;;;;;;;;1.50;1.50;;;;;6.55;87.55;100329.31;5093447;28;8845;-57
2023/12/19 07:51:57;;;;;;;;;2.00;2.00;;;;;6.52;88.27;100320.72;5093746;28;8837;-57
2023/12/19 07:54:26;;;;;;;;;2.75;2.00;;;;;6.49;88.57;100320.88;5093756;28;8838;-57
2023/12/19 07:56:53;;;;;;;;;3.00;1.80;;;;;6.46;88.57;100323.69;5093175;28;8834;-57
2023/12/19 07:59:21;;;;;;;;;1.00;1.00;;;;;6.47;88.38;100325.41;5093169;28;8956;-57
2023/12/19 08:01:49;;;;;;;;;3.00;1.00;;;;;6.47;88.75;100307.75;5096834;28;8834;-55
2023/12/19 08:04:17;;;;;;;;;0.00;0.00;;;;;6.47;88.53;100312.16;5096538;28;8833;-57
2023/12/19 08:06:45;;;;;;;;;1.00;0.50;;;;;6.48;89.02;100322.69;5096866;28;8932;-57
2023/12/19 08:09:14;;;;;;;;;0.25;0.25;;;;;6.50;88.61;100314.63;5096332;28;8834;-58
2023/12/19 08:11:42;;;;;;;;;1.00;1.00;;;;;6.52;88.14;100302.19;5097175;28;8842;-57
2023/12/19 08:14:10;;;;;;;;;2.00;1.00;;;;;6.54;88.81;100305.59;5097073;28;8823;-56
2023/12/19 08:16:38;;;;;;;;;1.00;1.00;;;;;6.58;88.90;100293.88;5097145;28;9608;-56
2023/12/19 08:19:06;;;;;;;;;0.50;0.00;;;;;6.64;88.25;100301.47;5096361;28;8881;-56
2023/12/19 08:21:34;;;;;;;;;1.50;1.00;;;;;6.71;88.38;100294.88;5096086;28;9820;-55
2023/12/19 08:24:03;;;;;;;;;1.25;0.75;;;;;6.75;88.22;100291.13;5094853;28;8841;-57
2023/12/19 08:26:31;;;;;;;;;1.00;1.00;;;;;6.80;88.01;100289.03;5095298;28;8869;-57
2023/12/19 08:28:58;;;;;;;;;0.00;0.00;;;;;6.84;87.83;100303.81;5095773;28;9965;-57
2023/12/19 08:31:26;;;;;;;;;0.25;0.00;;;;;6.87;87.82;100301.84;5095991;28;8826;-57
2023/12/19 08:33:55;;;;;;;;;0.75;0.75;;;;;6.88;87.82;100305.31;5097181;28;8914;-56
2023/12/19 08:36:23;;;;;;;;;1.00;1.00;;;;;6.90;87.62;100312.22;5097079;28;8841;-57
2023/12/19 08:39:01;;;;;;;;;1.00;0.50;;;;;6.95;87.58;100317.25;5097679;28;8880;-56
2023/12/19 08:41:29;;;;;;;;;1.00;1.00;;;;;6.96;87.91;100311.03;5097537;28;9741;-56
2023/12/19 08:43:57;;;;;;;;;0.50;0.50;;;;;7.02;87.25;100314.16;5097040;28;8965;-57
2023/12/19 08:46:25;;;;;;;;;1.00;1.00;;;;;7.06;86.98;100317.50;5096301;28;8838;-57
2023/12/19 08:48:53;;;;;;;;;1.00;1.00;;;;;7.12;87.34;100317.13;5096769;28;8829;-55
2023/12/19 08:51:21;;;;;;;;;1.00;1.00;;;;;7.17;87.20;100323.84;5096684;28;8882;-58
2023/12/19 08:53:49;;;;;;;;;1.00;1.00;;;;;7.23;86.74;100323.50;5096696;28;8834;-57
2023/12/19 08:56:17;;;;;;;;;0.00;0.00;;;;;7.30;86.64;100318.66;5096093;28;8826;-58
2023/12/19 08:58:48;;;;;;;;;0.00;0.00;;;;;7.35;86.68;100322.72;5097128;28;8860;-58
2023/12/19 09:01:17;;;;;;;;;1.00;1.00;;;;;7.38;86.20;100324.34;5096830;28;8876;-58
2023/12/19 09:03:45;;;;;;;;;1.00;1.00;;;;;7.32;86.51;100316.78;5096865;28;8841;-57
2023/12/19 09:06:13;;;;;;;;;0.75;0.75;;;;;7.27;86.76;100310.91;5096756;28;8958;-59
2023/12/19 09:08:41;;;;;;;;;1.00;1.00;;;;;7.19;86.88;100305.22;5096335;28;8854;-58
2023/12/19 09:11:09;;;;;;;;;2.00;2.00;;;;;7.12;87.20;100299.44;5095555;28;8834;-58
2023/12/19 09:13:38;;;;;;;;;0.00;0.00;;;;;7.09;86.91;100298.75;5096463;28;8841;-57
2023/12/19 09:16:06;;;;;;;;;3.00;3.00;;;;;7.05;87.20;100273.44;5096695;28;8822;-58
2023/12/19 09:18:34;;;;;;;;;1.00;1.00;;;;;7.03;87.37;100270.00;5096474;28;8819;-55
2023/12/19 09:21:03;;;;;;;;;2.50;2.50;;;;;7.01;87.39;100267.47;5096679;28;8838;-57
2023/12/19 09:23:31;;;;;;;;;3.00;3.00;;;;;7.01;87.45;100264.81;5096440;28;8854;-58
2023/12/19 09:25:59;;;;;;;;;1.00;1.00;;;;;7.03;87.22;100267.34;5096267;28;8888;-57
2023/12/19 09:28:29;;;;;;;;;3.00;1.00;;;;;7.04;87.47;100269.09;5096260;28;8822;-56
2023/12/19 09:30:58;;;;;;;;;1.50;1.50;;;;;7.04;87.63;100267.28;5096470;28;8837;-58
2023/12/19 09:33:28;;;;;;;;;3.00;3.00;;;;;7.06;87.53;100275.13;5096496;28;8845;-57
2023/12/19 09:35:56;;;;;;;;;2.00;2.00;;;;;7.07;87.46;100285.63;5096888;28;8818;-58
2023/12/19 09:38:23;;;;;;;;;4.50;3.25;;;;;7.08;87.18;100278.53;5096667;28;8829;-57
2023/12/19 09:40:50;;;;;;;;;3.00;3.00;;;;;7.07;86.75;100279.47;5096320;28;8881;-58
2023/12/19 09:43:18;;;;;;;;;1.00;1.00;;;;;7.05;87.24;100265.50;5096248;28;8838;-58
2023/12/19 09:45:47;;;;;;;;;2.50;2.50;;;;;7.03;87.52;100259.41;5096389;28;8919;-58
2023/12/19 09:48:15;;;;;;;;;3.50;2.75;;;;;7.00;87.94;100255.19;5096399;28;8829;-58
2023/12/19 09:50:44;;;;;;;;;3.00;3.00;;;;;7.01;87.26;100253.38;5095499;28;8830;-57
2023/12/19 09:53:12;;;;;;;;;3.50;3.50;;;;;7.01;87.37;100269.25;5095286;28;8850;-59
2023/12/19 09:55:43;;;;;;;;;0.00;0.00;;;;;7.01;87.55;100258.66;5095652;28;9542;-59
2023/12/19 09:58:12;;;;;;;;;3.75;3.00;;;;;7.01;87.61;100248.06;5095787;28;8861;-57
2023/12/19 10:00:40;;;;;;;;;3.50;3.50;;;;;7.02;87.96;100247.13;5094844;28;9597;-58
2023/12/19 10:03:08;;;;;;;;;3.00;3.00;;;;;7.04;87.82;100247.91;5093983;28;8976;-58
2023/12/19 10:05:36;;;;;;;;;1.00;1.00;;;;;7.05;87.69;100242.50;5094578;28;8846;-58
2023/12/19 10:08:04;;;;;;;;;1.00;1.00;;;;;7.06;87.67;100233.59;5094826;28;8834;-58
2023/12/19 10:10:32;;;;;;;;;2.50;1.00;;;;;7.09;87.67;100232.56;5094665;28;8930;-58
2023/12/19 10:13:00;;;;;;;;;3.25;3.25;;;;;7.11;87.35;100233.31;5094269;28;8927;-58
2023/12/19 10:15:29;;;;;;;;;3.75;3.50;;;;;7.12;87.73;100227.09;5095137;28;8822;-58
2023/12/19 10:17:56;;;;;;;;;2.50;2.50;;;;;7.11;87.23;100228.03;5092159;28;8846;-58
2023/12/19 10:20:25;;;;;;;;;3.75;3.25;;;;;7.09;87.83;100214.91;5093046;28;9075;-56
2023/12/19 10:22:53;;;;;;;;;4.00;4.00;;;;;7.09;87.70;100216.69;5093374;28;8845;-56
2023/12/19 10:25:23;;;;;;;;;3.75;3.00;;;;;7.07;87.72;100203.56;5094411;28;8825;-58
2023/12/19 10:27:57;;;;;;;;;3.00;3.00;;;;;7.06;87.88;100190.41;5093962;28;8928;-58
2023/12/19 10:30:25;;;;;;;;;4.25;4.25;;;;;7.05;88.09;100192.19;5094278;28;8930;-58
2023/12/19 10:32:53;;;;;;;;;2.00;2.00;;;;;7.05;87.88;100204.59;5093914;28;8825;-57
2023/12/19 10:35:21;;;;;;;;;3.00;3.00;;;;;7.05;87.88;100209.88;5094176;28;8913;-58
2023/12/19 10:37:49;;;;;;;;;4.25;4.00;;;;;7.05;88.09;100207.25;5094103;28;8826;-57
2023/12/19 10:40:19;;;;;;;;;5.50;5.00;;;;;7.06;87.87;100219.53;5094097;28;8830;-58
2023/12/19 10:42:47;;;;;;;;;2.50;2.50;;;;;7.04;87.82;100210.84;5095243;28;8822;-59
2023/12/19 10:45:15;;;;;;;;;3.50;3.50;;;;;7.04;87.90;100201.09;5094979;28;8920;-58
2023/12/19 10:47:44;;;;;;;;;0.50;0.50;;;;;7.05;87.86;100192.19;5094445;28;9634;-58
2023/12/19 10:50:12;;;;;;;;;3.25;3.25;;;;;7.08;87.87;100167.31;5093041;28;8896;-58
2023/12/19 10:52:40;;;;;;;;;2.00;1.00;;;;;7.10;87.97;100161.00;5092993;28;8836;-58
2023/12/19 10:55:09;;;;;;;;;2.00;2.00;;;;;7.10;87.68;100142.47;5092896;28;8818;-57
2023/12/19 10:57:49;;;;;;;;;3.25;3.25;;;;;7.10;87.81;100145.09;5092988;28;8856;-58
2023/12/19 11:00:21;;;;;;;;;1.00;1.00;;;;;7.10;87.51;100147.75;5092791;28;8868;-58
2023/12/19 11:02:49;;;;;;;;;1.00;1.00;;;;;7.11;87.87;100140.66;5092092;28;9483;-58
2023/12/19 11:05:17;;;;;;;;;3.00;3.00;;;;;7.11;88.10;100138.00;5093450;28;8919;-58
2023/12/19 11:07:46;;;;;;;;;2.50;2.50;;;;;7.09;87.93;100124.03;5093437;28;8829;-57
2023/12/19 11:10:14;;;;;;;;;5.50;4.00;;;;;7.09;88.15;100126.66;5093155;28;8833;-56
2023/12/19 11:12:43;;;;;;;;;1.00;1.00;;;;;7.08;87.83;100127.63;5093385;28;8873;-58
2023/12/19 11:15:11;;;;;;;;;2.50;1.00;;;;;7.08;88.06;100128.47;5093586;28;8968;-56
2023/12/19 11:17:38;;;;;;;;;3.00;1.00;;;;;7.09;88.25;100129.31;5094047;28;8838;-56
2023/12/19 11:20:09;;;;;;;;;3.50;3.00;;;;;7.07;88.21;100126.78;5093564;28;8822;-57
2023/12/19 11:22:37;;;;;;;;;0.00;0.00;;;;;7.06;88.39;100117.13;5093706;28;8834;-58
2023/12/19 11:25:07;;;;;;;;;0.50;0.50;;;;;7.07;88.18;100120.63;5093385;28;8814;-56
2023/12/19 11:27:47;;;;;;;;;3.00;3.00;;;;;7.06;87.91;100126.88;5094082;28;8841;-58
2023/12/19 11:30:15;;;;;;;;;3.00;3.00;;;;;7.06;88.69;100122.41;5092551;28;8822;-56
2023/12/19 11:32:43;;;;;;;;;2.00;2.00;;;;;7.05;87.95;100123.34;5093046;28;8857;-57
2023/12/19 11:35:11;;;;;;;;;1.00;1.00;;;;;7.05;88.51;100111.94;5093023;28;8992;-55
2023/12/19 11:37:39;;;;;;;;;0.50;0.50;;;;;7.05;88.56;100101.34;5096822;28;8981;-56
2023/12/19 11:40:08;;;;;;;;;2.50;1.00;;;;;7.06;88.46;100105.69;5096711;28;8844;-58
2023/12/19 11:42:36;;;;;;;;;0.50;0.50;;;;;7.05;88.82;100101.34;5095782;28;8846;-57
2023/12/19 11:45:04;;;;;;;;;1.00;1.00;;;;;7.02;88.42;100096.22;5095865;28;8826;-58
2023/12/19 11:47:32;;;;;;;;;2.00;1.00;;;;;7.00;88.68;100087.53;5095652;28;8862;-57
2023/12/19 11:50:03;;;;;;;;;0.00;0.00;;;;;6.98;88.90;100076.19;5095879;28;8874;-56
2023/12/19 11:52:32;;;;;;;;;1.00;1.00;;;;;6.98;88.26;100073.56;5095840;28;8829;-55